createdAt,value
2022-08-05T00:00:17.878Z,15.38
2022-08-05T00:02:51.505Z,14.63
2022-08-05T00:06:02.911Z,16.02
2022-08-05T00:08:19.740Z,15.00
2022-08-05T00:10:57.130Z,15.10
2022-08-05T00:13:38.461Z,15.13
2022-08-05T00:16:12.688Z,14.50
2022-08-05T00:18:42.775Z,15.00
2022-08-05T00:21:12.677Z,14.52
2022-08-05T00:23:46.614Z,14.75
2022-08-05T00:26:22.343Z,13.57
2022-08-05T00:28:51.039Z,14.52
2022-08-05T00:31:41.513Z,14.05
2022-08-05T00:34:54.016Z,14.70
2022-08-05T00:37:11.269Z,14.45
2022-08-05T00:39:44.471Z,15.23
2022-08-05T00:42:32.654Z,14.23
2022-08-05T00:45:00.757Z,14.68
2022-08-05T00:47:53.300Z,14.40
2022-08-05T00:50:17.761Z,15.43
2022-08-05T00:52:46.771Z,14.57
2022-08-05T00:55:14.906Z,14.00
2022-08-05T00:57:58.269Z,13.90
2022-08-05T01:00:27.459Z,14.68
2022-08-05T01:02:57.236Z,15.23
2022-08-05T01:05:27.472Z,14.52
2022-08-05T01:08:42.774Z,13.93
2022-08-05T01:10:52.518Z,14.25
2022-08-05T01:13:27.532Z,15.05
2022-08-05T01:16:28.218Z,14.02
2022-08-05T01:19:02.184Z,15.02
2022-08-05T01:21:42.831Z,13.38
2022-08-05T01:24:30.702Z,14.98
2022-08-05T01:27:17.523Z,14.75
2022-08-05T01:29:50.334Z,14.60
2022-08-05T01:32:22.969Z,14.32
2022-08-05T01:34:55.356Z,16.08
2022-08-05T01:37:27.424Z,14.55
2022-08-05T01:39:58.973Z,14.85
2022-08-05T01:42:28.040Z,14.90
2022-08-05T01:44:59.163Z,15.20
2022-08-05T01:47:30.523Z,14.73
2022-08-05T01:50:15.351Z,15.20
2022-08-05T01:52:45.394Z,15.38
2022-08-05T01:55:19.521Z,14.43
2022-08-05T01:58:09.488Z,14.70
2022-08-05T02:00:39.745Z,14.65
2022-08-05T02:03:16.412Z,15.13
2022-08-05T02:05:59.616Z,14.63
2022-08-05T02:08:31.310Z,16.50
2022-08-05T02:11:03.531Z,15.35
2022-08-05T02:13:53.375Z,14.52
2022-08-05T02:16:24.945Z,14.30
2022-08-05T02:18:57.471Z,14.68
2022-08-05T02:21:28.225Z,14.65
2022-08-05T02:24:01.641Z,14.35
2022-08-05T02:26:37.601Z,15.02
2022-08-05T02:29:17.302Z,15.27
2022-08-05T02:31:55.470Z,14.55
2022-08-05T02:34:24.391Z,14.85
2022-08-05T02:36:58.099Z,14.60
2022-08-05T02:39:26.415Z,15.30
2022-08-05T02:42:00.941Z,15.05
2022-08-05T02:44:30.014Z,14.35
2022-08-05T02:47:01.083Z,15.43
2022-08-05T02:49:36.723Z,15.37
2022-08-05T02:52:08.622Z,14.35
2022-08-05T02:54:41.610Z,14.48
2022-08-05T02:58:10.885Z,14.98
2022-08-05T03:00:02.666Z,15.10
2022-08-05T03:02:35.700Z,14.68
2022-08-05T03:05:04.710Z,14.55
2022-08-05T03:08:00.147Z,14.70
2022-08-05T03:10:25.040Z,15.10
2022-08-05T03:12:53.510Z,15.27
2022-08-05T03:15:21.586Z,15.13
2022-08-05T03:17:54.159Z,14.65
2022-08-05T03:20:24.289Z,14.25
2022-08-05T03:22:52.526Z,16.23
2022-08-05T03:26:02.584Z,14.80
2022-08-05T03:28:09.920Z,15.18
2022-08-05T03:30:38.325Z,15.02
2022-08-05T03:33:10.303Z,13.82
2022-08-05T03:35:40.687Z,14.75
2022-08-05T03:38:09.113Z,15.35
2022-08-05T03:40:41.179Z,15.40
2022-08-05T03:43:58.722Z,14.95
2022-08-05T03:46:01.458Z,13.73
2022-08-05T03:48:30.943Z,14.57
2022-08-05T03:52:38.455Z,15.23
2022-08-05T03:56:01.121Z,14.32
2022-08-05T03:56:51.897Z,15.53
2022-08-05T03:59:24.527Z,15.05
2022-08-05T04:01:53.112Z,15.38
2022-08-05T04:04:28.268Z,15.68
2022-08-05T04:06:56.260Z,16.55
2022-08-05T04:09:26.557Z,15.23
2022-08-05T04:11:56.431Z,14.23
2022-08-05T04:14:29.853Z,15.18
2022-08-05T04:16:59.857Z,14.98
2022-08-05T04:19:29.708Z,14.00
2022-08-05T04:22:08.789Z,15.52
2022-08-05T04:24:44.552Z,14.60
2022-08-05T04:27:13.485Z,15.70
2022-08-05T04:29:41.488Z,14.57
2022-08-05T04:32:09.793Z,14.40
2022-08-05T04:34:42.947Z,14.68
2022-08-05T04:37:11.114Z,13.68
2022-08-05T04:39:39.174Z,14.80
2022-08-05T04:42:09.141Z,13.98
2022-08-05T04:44:36.908Z,16.10
2022-08-05T04:47:08.899Z,15.73
2022-08-05T04:50:01.485Z,14.55
2022-08-05T04:52:28.158Z,14.38
2022-08-05T04:54:57.233Z,15.00
2022-08-05T04:57:28.558Z,14.18
2022-08-05T04:59:57.544Z,13.75
2022-08-05T05:02:36.304Z,13.93
2022-08-05T05:05:16.573Z,14.93
2022-08-05T05:08:01.469Z,13.80
2022-08-05T05:10:30.326Z,14.70
2022-08-05T05:12:58.519Z,13.38
2022-08-05T05:15:56.974Z,14.15
2022-08-05T05:18:15.056Z,13.93
2022-08-05T05:20:58.492Z,13.82
2022-08-05T05:23:26.447Z,14.00
2022-08-05T05:25:54.249Z,13.85
2022-08-05T05:28:22.138Z,14.23
2022-08-05T05:30:52.645Z,13.98
2022-08-05T05:33:23.353Z,14.02
2022-08-05T05:35:51.886Z,14.57
2022-08-05T05:38:22.175Z,14.82
2022-08-05T05:40:51.566Z,14.48
2022-08-05T05:43:27.961Z,15.13
2022-08-05T05:46:13.708Z,14.73
2022-08-05T05:48:44.480Z,14.95
2022-08-05T05:51:15.285Z,15.48
2022-08-05T05:53:54.521Z,13.88
2022-08-05T05:56:32.387Z,15.23
2022-08-05T05:59:03.623Z,14.10
2022-08-05T06:01:37.877Z,14.17
2022-08-05T06:04:11.778Z,15.98
2022-08-05T06:06:41.764Z,14.05
2022-08-05T06:09:18.072Z,14.77
2022-08-05T06:12:01.035Z,14.25
2022-08-05T06:14:30.371Z,15.15
2022-08-05T06:16:58.549Z,14.15
2022-08-05T06:19:34.882Z,14.25
2022-08-05T06:22:03.479Z,14.38
2022-08-05T06:24:32.600Z,15.15
2022-08-05T06:27:00.400Z,13.73
2022-08-05T06:29:49.436Z,13.27
2022-08-05T06:32:25.056Z,13.25
2022-08-05T06:34:56.832Z,13.38
2022-08-05T06:37:56.546Z,14.05
2022-08-05T06:40:18.267Z,14.10
2022-08-05T06:42:52.168Z,14.88
2022-08-05T06:45:44.691Z,14.65
2022-08-05T06:48:36.565Z,14.13
2022-08-05T06:50:57.133Z,13.50
2022-08-05T06:53:28.417Z,14.00
2022-08-05T06:55:58.254Z,14.45
2022-08-05T06:58:35.205Z,14.15
2022-08-05T07:01:05.619Z,13.98
2022-08-05T07:03:34.034Z,14.25
2022-08-05T07:06:05.713Z,13.65
2022-08-05T07:08:42.723Z,14.25
2022-08-05T07:11:15.269Z,13.90
2022-08-05T07:14:00.780Z,13.93
2022-08-05T07:17:59.875Z,15.35
2022-08-05T07:22:28.699Z,13.82
2022-08-05T07:25:09.535Z,15.68
2022-08-05T07:27:58.047Z,13.97
2022-08-05T07:30:32.750Z,14.50
2022-08-05T07:33:01.472Z,13.80
2022-08-05T07:38:32.581Z,14.95
2022-08-05T07:41:16.740Z,13.82
2022-08-05T07:43:55.072Z,13.77
2022-08-05T07:46:26.079Z,14.35
2022-08-05T07:49:02.218Z,14.05
2022-08-05T07:51:37.145Z,13.85
2022-08-05T07:54:09.853Z,15.15
2022-08-05T07:57:02.704Z,14.63
2022-08-05T07:59:38.402Z,14.68
2022-08-05T08:02:10.673Z,15.63
2022-08-05T08:04:45.044Z,14.80
2022-08-05T08:07:13.066Z,15.15
2022-08-05T08:09:40.862Z,13.60
2022-08-05T08:12:20.223Z,13.95
2022-08-05T08:15:01.981Z,14.95
2022-08-05T08:17:30.749Z,14.25
2022-08-05T08:20:43.977Z,14.95
2022-08-05T08:22:52.091Z,15.90
2022-08-05T08:25:26.913Z,15.68
2022-08-05T08:28:18.289Z,15.85
2022-08-05T08:30:49.665Z,15.30
2022-08-05T08:33:19.844Z,15.37
2022-08-05T08:35:53.801Z,15.00
2022-08-05T08:38:35.248Z,15.63
2022-08-05T08:41:08.585Z,15.43
2022-08-05T08:45:19.346Z,15.68
2022-08-05T08:46:28.586Z,15.15
2022-08-05T08:49:08.100Z,15.98
2022-08-05T08:52:03.433Z,15.27
2022-08-05T08:54:36.476Z,16.20
2022-08-05T08:57:11.435Z,15.85
2022-08-05T08:59:41.973Z,15.05
2022-08-05T09:02:18.942Z,15.73
2022-08-05T09:07:39.694Z,16.40
2022-08-05T09:10:27.931Z,16.27
2022-08-05T09:13:05.061Z,16.58
2022-08-05T09:15:37.123Z,16.63
2022-08-05T09:18:10.081Z,15.98
2022-08-05T09:20:41.997Z,15.20
2022-08-05T09:23:18.980Z,15.23
2022-08-05T09:26:02.328Z,16.02
2022-08-05T09:28:34.254Z,14.38
2022-08-05T09:31:18.152Z,15.82
2022-08-05T09:33:58.586Z,14.07
2022-08-05T09:36:54.767Z,15.55
2022-08-05T09:39:42.017Z,14.70
2022-08-05T09:42:21.225Z,15.02
2022-08-05T09:45:00.437Z,15.57
2022-08-05T09:47:47.963Z,15.23
2022-08-05T09:50:38.927Z,15.18
2022-08-05T09:53:12.063Z,15.82
2022-08-05T09:56:04.049Z,14.73
2022-08-05T09:58:32.834Z,14.90
2022-08-05T10:01:02.314Z,15.00
2022-08-05T10:03:59.092Z,14.68
2022-08-05T10:06:29.126Z,15.05
2022-08-05T10:09:27.381Z,15.85
2022-08-05T10:12:29.966Z,15.43
2022-08-05T10:15:17.132Z,15.90
2022-08-05T10:17:54.512Z,15.18
2022-08-05T10:20:26.658Z,14.85
2022-08-05T10:22:57.212Z,14.50
2022-08-05T10:25:26.457Z,14.65
2022-08-05T10:28:13.681Z,14.52
2022-08-05T10:32:48.283Z,15.27
2022-08-05T10:33:35.282Z,14.20
2022-08-05T10:36:05.114Z,14.27
2022-08-05T10:38:35.265Z,14.23
2022-08-05T10:41:07.902Z,15.63
2022-08-05T10:43:42.125Z,14.45
2022-08-05T10:46:13.333Z,14.68
2022-08-05T10:48:57.071Z,14.55
2022-08-05T10:51:28.956Z,14.75
2022-08-05T10:54:00.944Z,15.63
2022-08-05T10:56:31.511Z,15.35
2022-08-05T10:59:12.213Z,14.05
2022-08-05T11:02:07.651Z,14.50
2022-08-05T11:04:44.586Z,15.05
2022-08-05T11:07:17.966Z,14.40
2022-08-05T11:10:09.549Z,14.48
2022-08-05T11:12:50.909Z,15.32
2022-08-05T11:15:58.880Z,14.02
2022-08-05T11:18:25.320Z,14.63
2022-08-05T11:20:53.516Z,14.20
2022-08-05T11:24:04.297Z,14.52
2022-08-05T11:26:28.646Z,14.02
2022-08-05T11:29:12.146Z,14.60
2022-08-05T11:31:57.715Z,14.85
2022-08-05T11:34:38.884Z,14.63
2022-08-05T11:38:26.359Z,13.38
2022-08-05T11:39:55.528Z,14.85
2022-08-05T11:42:33.149Z,14.32
2022-08-05T11:45:27.037Z,14.00
2022-08-05T11:47:56.915Z,15.77
2022-08-05T11:50:27.066Z,14.63
2022-08-05T11:53:09.879Z,14.68
2022-08-05T11:55:37.786Z,14.27
2022-08-05T11:58:10.320Z,15.30
2022-08-05T12:00:41.442Z,14.13
2022-08-05T12:03:24.065Z,14.75
2022-08-05T12:06:02.476Z,13.95
2022-08-05T12:08:32.691Z,14.70
2022-08-05T12:11:05.490Z,13.27
2022-08-05T12:13:49.670Z,14.38
2022-08-05T12:16:25.461Z,14.80
2022-08-05T12:18:55.276Z,13.65
2022-08-05T12:21:26.886Z,14.85
2022-08-05T12:24:04.274Z,14.85
2022-08-05T12:26:33.331Z,14.15
2022-08-05T12:29:03.146Z,14.50
2022-08-05T12:31:41.535Z,14.73
2022-08-05T12:34:21.262Z,14.75
2022-08-05T12:36:51.715Z,14.05
2022-08-05T12:39:20.154Z,14.63
2022-08-05T12:41:48.713Z,15.35
2022-08-05T12:44:21.635Z,15.05
2022-08-05T12:47:01.887Z,15.93
2022-08-05T12:50:04.251Z,14.77
2022-08-05T12:52:33.916Z,15.30
2022-08-05T12:55:17.899Z,14.60
2022-08-05T12:58:50.870Z,15.02
2022-08-05T13:02:01.886Z,15.80
2022-08-05T13:03:32.474Z,15.02
2022-08-05T13:06:01.110Z,14.43
2022-08-05T13:08:30.368Z,15.98
2022-08-05T13:11:02.236Z,14.98
2022-08-05T13:14:05.134Z,14.52
2022-08-05T13:16:20.767Z,15.00
2022-08-05T13:18:57.723Z,14.45
2022-08-05T13:21:48.237Z,14.52
2022-08-05T13:24:27.752Z,14.15
2022-08-05T13:27:11.207Z,14.15
2022-08-05T13:29:59.491Z,14.68
2022-08-05T13:32:39.415Z,15.73
2022-08-05T13:35:10.679Z,15.48
2022-08-05T13:37:38.506Z,15.35
2022-08-05T13:40:16.839Z,14.80
2022-08-05T13:42:55.544Z,15.77
2022-08-05T13:45:23.509Z,15.10
2022-08-05T13:48:08.708Z,15.27
2022-08-05T13:50:50.876Z,14.85
2022-08-05T13:53:21.022Z,14.38
2022-08-05T13:55:57.654Z,15.68
2022-08-05T13:58:30.742Z,15.27
2022-08-05T14:00:59.050Z,15.52
2022-08-05T14:03:38.260Z,14.77
2022-08-05T14:06:26.721Z,14.98
2022-08-05T14:08:54.661Z,14.43
2022-08-05T14:11:22.453Z,15.00
2022-08-05T14:13:55.055Z,15.65
2022-08-05T14:16:25.622Z,14.90
2022-08-05T14:18:54.771Z,14.82
2022-08-05T14:22:08.936Z,16.58
2022-08-05T14:24:12.404Z,15.35
2022-08-05T14:26:47.183Z,13.85
2022-08-05T14:29:28.111Z,15.45
2022-08-05T14:32:11.278Z,14.77
2022-08-05T14:34:45.133Z,15.52
2022-08-05T14:37:14.118Z,15.48
2022-08-05T14:39:50.002Z,15.10
2022-08-05T14:42:25.140Z,15.30
2022-08-05T14:44:53.531Z,15.88
2022-08-05T14:48:02.421Z,14.63
2022-08-05T14:50:19.147Z,15.13
2022-08-05T14:52:53.643Z,15.18
2022-08-05T14:55:25.775Z,15.52
2022-08-05T14:57:56.776Z,15.10
2022-08-05T15:00:28.026Z,15.00
2022-08-05T15:02:56.437Z,15.20
2022-08-05T15:05:29.821Z,15.93
2022-08-05T15:08:38.025Z,15.23
2022-08-05T15:11:02.910Z,15.50
2022-08-05T15:13:45.795Z,15.15
2022-08-05T15:16:14.536Z,14.38
2022-08-05T15:18:42.467Z,13.60
2022-08-05T15:21:21.182Z,15.02
2022-08-05T15:23:49.034Z,14.02
2022-08-05T15:26:17.529Z,13.93
2022-08-05T15:29:00.087Z,14.57
2022-08-05T15:31:34.969Z,15.57
2022-08-05T15:34:18.291Z,14.32
2022-08-05T15:36:52.114Z,15.10
2022-08-05T15:40:59.388Z,13.90
2022-08-05T15:42:53.469Z,14.35
2022-08-05T15:44:55.506Z,15.13
2022-08-05T15:47:23.631Z,15.07
2022-08-05T15:49:59.110Z,15.80
2022-08-05T15:52:51.867Z,14.80
2022-08-05T15:55:17.624Z,15.10
2022-08-05T15:57:48.922Z,15.18
2022-08-05T16:00:26.199Z,15.00
2022-08-05T16:03:00.685Z,14.77
2022-08-05T16:05:28.706Z,13.93
2022-08-05T16:07:57.772Z,14.77
2022-08-05T16:10:26.908Z,14.73
2022-08-05T16:12:55.962Z,14.57
2022-08-05T16:15:24.359Z,14.35
2022-08-05T16:18:00.348Z,14.27
2022-08-05T16:20:28.135Z,14.38
2022-08-05T16:22:57.392Z,14.93
2022-08-05T16:25:34.160Z,14.68
2022-08-05T16:28:05.425Z,15.00
2022-08-05T16:30:36.001Z,15.05
2022-08-05T16:33:04.081Z,15.02
2022-08-05T16:35:32.299Z,15.32
2022-08-05T16:38:15.644Z,14.18
2022-08-05T16:40:55.198Z,15.32
2022-08-05T16:43:24.149Z,14.43
2022-08-05T16:46:04.344Z,14.85
2022-08-05T16:48:40.569Z,14.60
2022-08-05T16:51:10.754Z,13.88
2022-08-05T16:54:02.934Z,14.52
2022-08-05T16:56:30.019Z,14.80
2022-08-05T16:58:57.940Z,14.85
2022-08-05T17:01:25.960Z,14.98
2022-08-05T17:03:53.860Z,14.70
2022-08-05T17:07:38.904Z,15.98
2022-08-05T17:10:08.197Z,16.95
2022-08-05T17:12:51.781Z,15.30
2022-08-05T17:15:20.197Z,14.30
2022-08-05T17:17:54.993Z,14.65
2022-08-05T17:20:23.131Z,15.95
2022-08-05T17:22:55.706Z,15.50
2022-08-05T17:25:39.421Z,15.20
2022-08-05T17:28:09.132Z,15.30
2022-08-05T17:30:42.425Z,15.57
2022-08-05T17:33:18.656Z,15.40
2022-08-05T17:36:09.111Z,15.35
2022-08-05T17:38:35.661Z,16.30
2022-08-05T17:41:04.757Z,15.57
2022-08-05T17:43:50.276Z,14.73
2022-08-05T17:46:20.759Z,15.13
2022-08-05T17:48:48.920Z,16.30
2022-08-05T17:51:21.535Z,14.88
2022-08-05T17:53:50.723Z,15.25
2022-08-05T17:56:23.930Z,16.33
2022-08-05T17:58:56.276Z,15.05
2022-08-05T18:01:24.031Z,15.50
2022-08-05T18:04:04.765Z,15.93
2022-08-05T18:09:03.781Z,15.88
2022-08-05T18:11:34.005Z,15.18
2022-08-05T18:14:04.316Z,15.55
2022-08-05T18:16:35.043Z,16.02
2022-08-05T18:23:11.369Z,14.90
2022-08-05T18:25:45.348Z,15.32
2022-08-05T18:32:02.136Z,18.98
2022-08-05T18:35:20.499Z,16.77
2022-08-05T18:42:04.651Z,16.95
2022-08-05T18:44:49.279Z,16.67
2022-08-05T18:47:26.878Z,17.40
2022-08-05T18:50:13.245Z,15.98
2022-08-05T18:56:30.817Z,16.40
2022-08-05T19:02:49.297Z,16.30
2022-08-05T19:06:05.631Z,16.48
2022-08-05T19:08:12.222Z,17.05
2022-08-05T19:10:41.682Z,16.58
2022-08-05T19:13:15.761Z,15.90
2022-08-05T19:15:59.303Z,17.38
2022-08-05T19:22:17.106Z,16.85
2022-08-05T19:25:21.682Z,16.48
2022-08-05T19:28:36.955Z,16.20
2022-08-05T19:31:44.988Z,17.08
2022-08-05T19:34:20.134Z,16.25
2022-08-05T19:40:37.795Z,18.00
2022-08-05T19:43:07.326Z,17.00
2022-08-05T19:45:36.855Z,18.55
2022-08-05T19:48:05.468Z,17.30
2022-08-05T19:50:34.921Z,16.65
2022-08-05T19:53:09.619Z,16.30
2022-08-05T19:56:15.674Z,17.42
2022-08-05T19:58:30.113Z,15.80
2022-08-05T20:00:58.046Z,16.80
2022-08-05T20:03:26.503Z,17.70
2022-08-05T20:07:04.552Z,17.17
2022-08-05T20:09:54.350Z,17.35
2022-08-05T20:14:53.146Z,16.50
2022-08-05T20:17:23.588Z,16.13
2022-08-05T20:19:57.628Z,16.42
2022-08-05T20:22:27.022Z,16.85
2022-08-05T20:24:55.372Z,16.60
2022-08-05T20:27:27.309Z,16.38
2022-08-05T20:30:11.419Z,17.08
2022-08-05T20:32:45.176Z,16.95
2022-08-05T20:35:13.430Z,17.48
2022-08-05T20:38:05.785Z,16.55
2022-08-05T20:40:30.542Z,16.92
2022-08-05T20:43:03.573Z,16.33
2022-08-05T20:45:56.653Z,16.33
2022-08-05T20:48:19.930Z,14.43
2022-08-05T20:50:48.219Z,14.30
2022-08-05T20:53:36.465Z,15.18
2022-08-05T20:56:08.667Z,14.85
2022-08-05T20:58:38.254Z,13.77
2022-08-05T21:01:05.976Z,14.00
2022-08-05T21:03:34.554Z,14.18
2022-08-05T21:06:02.748Z,14.02
2022-08-05T21:08:36.024Z,13.80
2022-08-05T21:11:11.590Z,14.05
2022-08-05T21:13:48.337Z,14.07
2022-08-05T21:16:29.666Z,13.88
2022-08-05T21:18:59.888Z,13.20
2022-08-05T21:21:43.849Z,14.32
2022-08-05T21:24:16.112Z,14.57
2022-08-05T21:26:53.171Z,15.20
2022-08-05T21:29:26.419Z,14.23
2022-08-05T21:31:59.495Z,13.65
2022-08-05T21:34:28.190Z,14.95
2022-08-05T21:36:56.152Z,13.73
2022-08-05T21:39:26.971Z,13.65
2022-08-05T21:42:01.878Z,13.27
2022-08-05T21:44:32.065Z,13.23
2022-08-05T21:47:00.212Z,12.57
2022-08-05T21:49:58.603Z,12.82
2022-08-05T21:52:27.431Z,13.20
2022-08-05T21:54:56.531Z,12.93
2022-08-05T21:57:32.525Z,12.57
2022-08-05T22:00:05.006Z,12.00
2022-08-05T22:02:34.779Z,12.07
2022-08-05T22:05:04.304Z,12.40
2022-08-05T22:07:40.159Z,11.55
2022-08-05T22:10:26.507Z,11.95
2022-08-05T22:12:55.208Z,11.30
2022-08-05T22:15:56.471Z,12.02
2022-08-05T22:18:15.422Z,11.82
2022-08-05T22:20:47.365Z,11.60
2022-08-05T22:24:03.037Z,12.40
2022-08-05T22:26:42.172Z,12.50
2022-08-05T22:29:18.670Z,12.13
2022-08-05T22:31:55.004Z,11.88
2022-08-05T22:34:28.690Z,11.20
2022-08-05T22:36:58.564Z,11.45
2022-08-05T22:39:32.606Z,11.82
2022-08-05T22:42:10.737Z,11.50
2022-08-05T22:44:40.848Z,11.93
2022-08-05T22:47:11.981Z,11.85
2022-08-05T22:50:20.932Z,12.15
2022-08-05T22:52:32.203Z,12.90
2022-08-05T22:55:02.091Z,12.40
2022-08-05T22:57:36.193Z,12.45
2022-08-05T23:00:07.834Z,12.48
2022-08-05T23:02:40.030Z,12.40
2022-08-05T23:05:15.323Z,12.48
2022-08-05T23:07:45.079Z,12.68
2022-08-05T23:10:20.246Z,12.00
2022-08-05T23:12:51.188Z,12.63
2022-08-05T23:15:22.269Z,12.75
2022-08-05T23:18:01.458Z,12.55
2022-08-05T23:20:30.585Z,12.20
2022-08-05T23:22:58.636Z,12.38
2022-08-05T23:25:52.618Z,12.07
2022-08-05T23:28:15.894Z,13.05
2022-08-05T23:30:53.949Z,12.95
2022-08-05T23:33:26.119Z,12.63
2022-08-05T23:36:13.779Z,12.85
2022-08-05T23:38:42.100Z,12.52
2022-08-05T23:41:10.776Z,12.45
2022-08-05T23:44:05.062Z,12.48
2022-08-05T23:46:26.407Z,12.85
2022-08-05T23:48:59.773Z,12.27
2022-08-05T23:51:53.663Z,12.82
2022-08-05T23:54:25.673Z,13.48
2022-08-05T23:56:54.937Z,12.50
2022-08-05T23:59:23.176Z,12.63
